Time;durP1;ratioP1;P1;durP2;ratioP2;P2;SDS_P1;SDS_P2;PMS_P1;PMS_P2;Temp;Humidity;BMP_temperature;BMP_pressure;BME280_temperature;BME280_humidity;BME280_pressure;Samples;Min_cycle;Max_cycle;Signal;HPM_P1;HPM_P2
2024/03/14 00:00:18;;;;;;;6.40;2.50;;;;;;;3.72;58.30;99340.96;79480;1294;3014363;-60
2024/03/14 00:02:47;;;;;;;7.40;2.70;;;;;;;3.70;58.44;99336.17;78241;1298;3052685;-58
2024/03/14 00:05:14;;;;;;;12.40;2.70;;;;;;;3.70;58.82;99337.20;79468;1295;3013972;-61
2024/03/14 00:07:41;;;;;;;5.30;2.60;;;;;;;3.74;58.71;99339.14;79293;1298;3013088;-61
2024/03/14 00:10:09;;;;;;;9.70;2.60;;;;;;;3.65;59.17;99332.70;78369;1296;3069041;-59
2024/03/14 00:12:36;;;;;;;7.40;2.70;;;;;;;3.64;59.44;99337.60;79204;1295;3013232;-60
2024/03/14 00:15:04;;;;;;;9.60;2.70;;;;;;;3.59;59.79;99335.85;79395;1294;3011914;-61
2024/03/14 00:17:32;;;;;;;5.80;2.60;;;;;;;3.64;59.58;99340.88;78660;1297;3053040;-59
2024/03/14 00:20:00;;;;;;;7.90;2.40;;;;;;;3.58;59.96;99336.42;79542;1296;3013684;-63
2024/03/14 00:22:27;;;;;;;6.20;2.40;;;;;;;3.62;59.92;99326.90;79258;1297;3011511;-59
2024/03/14 00:24:55;;;;;;;7.00;3.20;;;;;;;3.60;59.96;99332.86;78695;1297;3069503;-62
2024/03/14 00:27:22;;;;;;;11.70;2.60;;;;;;;3.57;60.07;99334.89;79220;1296;3014710;-62
2024/03/14 00:29:49;;;;;;;9.40;2.60;;;;;;;3.61;59.84;99332.85;79419;1296;3011930;-60
2024/03/14 00:32:17;;;;;;;8.70;2.70;;;;;;;3.59;59.94;99331.88;78005;1297;3027403;-58
2024/03/14 00:34:43;;;;;;;7.80;3.00;;;;;;;3.51;60.27;99336.29;79506;1298;3012821;-59
2024/03/14 00:37:10;;;;;;;8.10;2.80;;;;;;;3.46;60.50;99330.59;79294;1300;3012037;-60
2024/03/14 00:39:38;;;;;;;6.40;2.80;;;;;;;3.44;60.67;99335.16;77928;1298;3028624;-61
2024/03/14 00:42:06;;;;;;;6.50;2.70;;;;;;;3.34;61.09;99337.02;79353;1298;3013400;-60
2024/03/14 00:44:32;;;;;;;7.00;2.70;;;;;;;3.22;61.60;99334.67;79373;1296;3011943;-59
2024/03/14 00:47:01;;;;;;;10.70;2.70;;;;;;;3.34;61.25;99335.11;78428;1298;3052614;-61
2024/03/14 00:49:28;;;;;;;9.70;2.70;;;;;;;3.35;61.21;99331.49;79728;1298;3011768;-60
2024/03/14 00:51:56;;;;;;;11.60;2.80;;;;;;;3.33;61.59;99329.44;79273;1298;3013929;-59
2024/03/14 00:54:23;;;;;;;18.80;3.20;;;;;;;3.43;61.46;99329.30;78364;1295;3067586;-61
2024/03/14 00:56:50;;;;;;;13.40;3.90;;;;;;;3.49;61.35;99325.46;80469;1294;3013385;-61
2024/03/14 00:59:17;;;;;;;15.20;5.30;;;;;;;3.49;61.21;99323.20;80052;1294;3011763;-62
2024/03/14 01:01:44;;;;;;;8.80;4.50;;;;;;;3.48;61.32;99325.83;78820;1295;3026515;-62
2024/03/14 01:04:11;;;;;;;13.80;4.40;;;;;;;3.53;61.04;99322.39;79751;1298;3018312;-60
2024/03/14 01:06:38;;;;;;;12.90;4.90;;;;;;;3.38;61.51;99324.78;79369;1299;3011486;-61
2024/03/14 01:09:11;;;;;;;10.10;4.40;;;;;;;3.34;61.98;99323.02;78261;1299;3028214;-61
2024/03/14 01:11:39;;;;;;;12.80;4.50;;;;;;;3.30;62.08;99319.52;80113;1295;3011691;-61
2024/03/14 01:14:07;;;;;;;10.90;4.40;;;;;;;3.22;62.17;99314.91;78665;1295;3056236;-61
2024/03/14 01:16:34;;;;;;;10.20;3.60;;;;;;;3.15;62.63;99311.51;79908;1295;3019205;-61
2024/03/14 01:19:00;;;;;;;9.40;4.00;;;;;;;3.16;62.54;99309.23;79928;1296;3011955;-59
2024/03/14 01:21:28;;;;;;;10.40;3.90;;;;;;;3.25;61.96;99316.22;78378;1298;3026242;-61
2024/03/14 01:23:57;;;;;;;7.70;3.80;;;;;;;3.23;62.15;99313.50;79465;1298;3013589;-58
2024/03/14 01:26:23;;;;;;;13.50;3.70;;;;;;;3.22;62.11;99316.34;79163;1298;3013291;-60
2024/03/14 01:28:51;;;;;;;11.80;4.20;;;;;;;3.22;62.16;99317.54;78700;1298;3056770;-60
2024/03/14 01:31:18;;;;;;;9.00;3.80;;;;;;;3.12;62.66;99315.58;79234;1298;3012781;-61
2024/03/14 01:33:45;;;;;;;9.30;4.30;;;;;;;3.11;62.52;99311.99;79520;1296;3014248;-63
2024/03/14 01:36:14;;;;;;;11.20;4.50;;;;;;;3.10;62.87;99306.85;78066;1298;3026051;-60
2024/03/14 01:38:41;;;;;;;9.10;4.00;;;;;;;3.15;62.61;99311.34;79955;1298;3011722;-61
2024/03/14 01:41:18;;;;;;;14.90;4.60;;;;;;;3.20;62.52;99312.05;79677;1296;3011484;-59
2024/03/14 01:43:58;;;;;;;13.10;4.50;;;;;;;3.22;62.29;99313.37;78521;1296;3056781;-59
2024/03/14 01:46:30;;;;;;;10.00;4.90;;;;;;;3.18;62.74;99316.62;78766;1295;3048537;-59
2024/03/14 01:49:01;;;;;;;13.50;4.90;;;;;;;3.14;63.13;99315.36;79464;1297;3012947;-61
2024/03/14 01:51:29;;;;;;;11.10;5.20;;;;;;;3.08;63.01;99318.30;78362;1298;3050021;-59
2024/03/14 01:53:56;;;;;;;18.20;6.10;;;;;;;3.03;63.75;99312.77;79321;1300;3013448;-60
2024/03/14 01:56:23;;;;;;;12.00;5.40;;;;;;;2.97;63.68;99309.83;79741;1296;3013001;-62
2024/03/14 01:58:51;;;;;;;22.20;6.10;;;;;;;2.98;63.49;99315.00;78357;1295;3050770;-59
2024/03/14 02:01:19;;;;;;;13.90;6.20;;;;;;;2.96;63.79;99310.23;79920;1296;3012498;-62
2024/03/14 02:03:48;;;;;;;16.80;5.60;;;;;;;2.95;63.67;99313.21;79607;1296;3013085;-61
2024/03/14 02:06:24;;;;;;;17.80;5.70;;;;;;;2.92;64.21;99313.64;78125;1301;3050384;-61
2024/03/14 02:08:52;;;;;;;11.70;6.10;;;;;;;2.89;64.27;99320.83;78503;1301;3052060;-60
2024/03/14 02:11:22;;;;;;;12.60;5.90;;;;;;;2.85;64.72;99321.46;80086;1295;3013192;-60
2024/03/14 02:13:50;;;;;;;13.80;4.80;;;;;;;2.83;64.90;99322.22;79463;1298;3011629;-61
2024/03/14 02:16:17;;;;;;;13.30;5.60;;;;;;;2.78;65.19;99324.11;79174;1294;3013269;-61
2024/03/14 02:18:45;;;;;;;15.20;5.40;;;;;;;2.79;64.96;99322.00;79217;1296;3011662;-61
2024/03/14 02:21:13;;;;;;;15.70;6.80;;;;;;;2.79;64.59;99325.29;78238;1299;3051964;-63
2024/03/14 02:23:40;;;;;;;12.30;5.60;;;;;;;2.78;64.58;99323.91;79759;1298;3013111;-59
2024/03/14 02:26:07;;;;;;;13.00;6.20;;;;;;;2.70;65.42;99321.92;79388;1297;3011502;-61
2024/03/14 02:28:37;;;;;;;12.30;6.00;;;;;;;2.60;66.18;99322.40;78572;1296;3028449;-60
2024/03/14 02:31:04;;;;;;;13.80;5.50;;;;;;;2.53;66.80;99321.73;79800;1295;3013310;-63
2024/03/14 02:33:30;;;;;;;14.30;6.30;;;;;;;2.45;67.37;99320.44;79666;1295;3013243;-61
2024/03/14 02:35:58;;;;;;;17.30;5.40;;;;;;;2.44;67.45;99313.02;77811;1298;3053386;-63
2024/03/14 02:38:25;;;;;;;11.20;5.90;;;;;;;2.39;67.90;99308.17;79243;1300;3018388;-61
2024/03/14 02:40:52;;;;;;;12.60;5.90;;;;;;;2.41;67.22;99306.55;79772;1299;3011546;-59
2024/03/14 02:43:22;;;;;;;13.20;6.60;;;;;;;2.38;67.49;99306.63;78384;1295;3025774;-60
2024/03/14 02:45:49;;;;;;;13.90;5.10;;;;;;;2.33;68.10;99309.55;79392;1294;3013486;-61
2024/03/14 02:48:17;;;;;;;10.70;5.00;;;;;;;2.22;68.46;99308.83;79380;1295;3011782;-62
2024/03/14 02:50:45;;;;;;;12.90;5.30;;;;;;;2.17;68.93;99311.55;78207;1295;3054053;-62
2024/03/14 02:53:13;;;;;;;9.70;4.90;;;;;;;2.17;68.66;99310.88;80163;1298;3011556;-58
2024/03/14 02:55:40;;;;;;;12.00;5.80;;;;;;;2.20;68.49;99307.52;79613;1296;3011628;-61
2024/03/14 02:58:08;;;;;;;18.40;6.30;;;;;;;2.18;68.44;99305.67;79736;1296;3067898;-62
2024/03/14 03:00:34;;;;;;;10.90;5.20;;;;;;;2.16;68.77;99313.16;80168;1294;3012562;-60
2024/03/14 03:03:01;;;;;;;12.00;5.40;;;;;;;2.14;68.85;99319.44;80130;1295;3012979;-61
2024/03/14 03:05:29;;;;;;;10.20;5.90;;;;;;;2.10;69.18;99322.63;79182;1295;3026048;-60
2024/03/14 03:07:57;;;;;;;15.20;5.80;;;;;;;2.13;68.69;99326.17;80294;1298;3012840;-62
2024/03/14 03:10:24;;;;;;;13.10;5.90;;;;;;;2.12;68.86;99327.77;79880;1298;3011737;-62
2024/03/14 03:12:51;;;;;;;9.70;5.60;;;;;;;2.12;69.24;99319.99;78657;1295;3068747;-61
2024/03/14 03:15:19;;;;;;;12.70;6.00;;;;;;;2.14;69.21;99318.21;79359;1298;3013920;-59
2024/03/14 03:17:46;;;;;;;11.20;5.80;;;;;;;2.16;69.02;99317.96;79627;1296;3011361;-60
2024/03/14 03:20:15;;;;;;;13.10;6.00;;;;;;;2.18;68.88;99324.69;78867;1295;3052331;-61
2024/03/14 03:25:32;;;;;;;13.00;5.20;;;;;;;2.09;69.95;99329.77;78489;1298;3051575;-63
2024/03/14 03:28:00;;;;;;;14.50;6.20;;;;;;;2.12;69.34;99326.75;80712;1295;3012762;-61
2024/03/14 03:30:28;;;;;;;19.70;5.90;;;;;;;2.13;69.29;99326.70;78305;1295;3070041;-61
2024/03/14 03:32:55;;;;;;;10.60;5.10;;;;;;;2.13;69.18;99326.20;79789;1295;3018744;-62
2024/03/14 03:35:21;;;;;;;14.30;6.40;;;;;;;2.08;69.22;99321.69;79477;1296;3011498;-59
2024/03/14 03:37:49;;;;;;;10.10;5.80;;;;;;;2.05;69.93;99327.97;78271;1295;3028273;-60
2024/03/14 03:40:22;;;;;;;16.90;5.90;;;;;;;2.06;69.57;99332.79;80371;1295;3012465;-61
2024/03/14 03:42:52;;;;;;;14.40;6.00;;;;;;;2.09;69.21;99332.35;79057;1295;3052720;-62
2024/03/14 03:45:20;;;;;;;14.30;6.30;;;;;;;2.05;70.21;99340.07;79553;1294;3012073;-61
2024/03/14 03:47:48;;;;;;;14.70;5.40;;;;;;;2.02;70.47;99340.16;78927;1298;3026013;-62
2024/03/14 03:50:14;;;;;;;13.00;5.30;;;;;;;2.03;70.56;99339.96;79586;1298;3019065;-61
2024/03/14 03:52:41;;;;;;;13.70;5.40;;;;;;;2.07;70.26;99347.62;79723;1298;3011507;-62
2024/03/14 03:55:16;;;;;;;15.10;5.40;;;;;;;2.14;69.94;99347.77;78506;1298;3025963;-62
2024/03/14 03:57:45;;;;;;;14.80;5.40;;;;;;;2.17;69.59;99352.70;79246;1297;3011715;-61
2024/03/14 04:02:59;;;;;;;13.40;5.10;;;;;;;2.17;70.06;99350.10;78928;1295;3068915;-60
2024/03/14 04:05:26;;;;;;;14.60;5.40;;;;;;;2.20;69.78;99352.61;79551;1295;3014797;-60
2024/03/14 04:07:56;;;;;;;11.80;5.20;;;;;;;2.18;69.95;99349.55;79478;1295;3011863;-62
2024/03/14 04:10:24;;;;;;;10.00;5.20;;;;;;;2.13;70.44;99351.08;78253;1297;3052675;-60
2024/03/14 04:12:53;;;;;;;10.80;5.30;;;;;;;2.14;70.18;99349.32;79735;1298;3013589;-60
2024/03/14 04:15:21;;;;;;;9.10;4.50;;;;;;;2.13;70.10;99349.18;79785;1298;3012028;-60
2024/03/14 04:17:50;;;;;;;12.90;5.50;;;;;;;2.10;70.66;99351.49;78220;1295;3068135;-62
2024/03/14 04:20:17;;;;;;;12.40;5.20;;;;;;;2.10;71.23;99356.52;79317;1295;3013778;-59
2024/03/14 04:22:46;;;;;;;12.20;5.00;;;;;;;2.15;70.87;99361.38;79549;1295;3011752;-62
2024/03/14 04:25:14;;;;;;;14.40;5.50;;;;;;;2.20;70.33;99364.02;78513;1298;3053643;-62
2024/03/14 04:27:45;;;;;;;8.70;4.40;;;;;;;2.20;70.88;99365.05;80256;1295;3013264;-59
2024/03/14 04:30:17;;;;;;;14.70;5.20;;;;;;;2.21;70.62;99360.89;78705;1296;3051593;-62
2024/03/14 04:32:47;;;;;;;11.60;5.20;;;;;;;2.22;70.99;99359.11;79843;1295;3011472;-64
2024/03/14 04:35:17;;;;;;;10.20;5.40;;;;;;;2.29;70.58;99366.35;78370;1296;3051728;-61
2024/03/14 04:37:44;;;;;;;12.00;5.70;;;;;;;2.33;70.41;99368.66;79529;1296;3013006;-62
2024/03/14 04:40:11;;;;;;;11.20;5.70;;;;;;;2.33;70.29;99369.17;79640;1295;3013140;-62
2024/03/14 04:42:43;;;;;;;14.50;5.90;;;;;;;2.33;70.70;99368.13;78207;1298;3051740;-62
2024/03/14 04:45:21;;;;;;;12.70;5.90;;;;;;;2.33;71.20;99369.17;78845;1298;3013039;-63
2024/03/14 04:47:50;;;;;;;18.80;6.50;;;;;;;2.37;71.21;99365.79;79292;1295;3011656;-61
2024/03/14 04:50:18;;;;;;;20.20;7.40;;;;;;;2.38;71.40;99366.63;80074;1297;3011622;-62
2024/03/14 04:52:45;;;;;;;19.20;7.20;;;;;;;2.41;71.53;99367.58;79535;1298;3013233;-66
2024/03/14 04:55:13;;;;;;;24.00;8.80;;;;;;;2.42;71.87;99364.61;78502;1295;3050987;-61
2024/03/14 04:57:40;;;;;;;29.80;10.20;;;;;;;2.45;72.02;99370.39;79368;1298;3011930;-62
2024/03/14 05:00:19;;;;;;;22.80;8.80;;;;;;;2.47;71.76;99368.77;79417;1297;3011932;-64
2024/03/14 05:02:51;;;;;;;23.00;8.60;;;;;;;2.59;71.67;99373.30;78599;1295;3049855;-60
2024/03/14 05:05:17;;;;;;;25.20;9.70;;;;;;;2.66;71.42;99370.14;79154;1297;3013130;-61
2024/03/14 05:07:45;;;;;;;21.90;9.20;;;;;;;2.68;71.71;99369.21;78487;1296;3027245;-62
2024/03/14 05:10:18;;;;;;;19.70;8.20;;;;;;;2.64;71.79;99370.88;79694;1297;3013092;-60
2024/03/14 05:14:21;;;;;;;17.60;8.40;;;;;;;2.78;71.71;99373.90;80213;1296;3015673;-62
2024/03/14 05:16:48;;;;;;;21.70;8.50;;;;;;;2.86;71.32;99374.03;79312;1297;3018976;-62
2024/03/14 05:19:20;;;;;;;16.90;8.00;;;;;;;2.81;71.61;99373.64;79307;1300;3012910;-60
2024/03/14 05:21:48;;;;;;;13.70;7.00;;;;;;;2.85;71.53;99374.58;78297;1301;3051583;-61
2024/03/14 05:24:16;;;;;;;22.20;7.00;;;;;;;2.94;70.87;99379.32;79591;1301;3012885;-60
2024/03/14 05:26:43;;;;;;;19.20;6.10;;;;;;;2.84;71.60;99380.13;79013;1301;3013864;-61
2024/03/14 05:29:11;;;;;;;15.10;6.20;;;;;;;2.88;71.53;99383.65;78518;1300;3048848;-58
2024/03/14 05:31:38;;;;;;;19.00;5.90;;;;;;;2.92;71.36;99385.95;79774;1302;3012618;-58
2024/03/14 05:34:04;;;;;;;10.30;5.10;;;;;;;2.88;71.83;99383.48;79861;1298;3011541;-61
2024/03/14 05:36:32;;;;;;;15.50;5.60;;;;;;;2.85;72.36;99386.33;77971;1300;3027289;-60
2024/03/14 05:39:00;;;;;;;14.00;5.00;;;;;;;2.84;72.57;99388.27;79878;1299;3013146;-60
2024/03/14 05:41:26;;;;;;;14.50;5.40;;;;;;;2.95;72.49;99391.05;79857;1300;3011522;-64
2024/03/14 05:43:55;;;;;;;15.30;5.60;;;;;;;3.00;72.30;99394.89;78441;1300;3050657;-61
2024/03/14 05:46:22;;;;;;;10.70;5.00;;;;;;;3.03;72.77;99394.97;79110;1298;3013360;-64
2024/03/14 05:48:49;;;;;;;15.30;4.70;;;;;;;3.10;72.42;99395.79;79394;1301;3013187;-62
2024/03/14 05:51:18;;;;;;;17.10;5.20;;;;;;;3.23;71.94;99397.29;78220;1297;3051403;-61
2024/03/14 05:53:46;;;;;;;10.90;4.20;;;;;;;3.23;71.90;99401.29;79364;1299;3014091;-62
2024/03/14 05:56:12;;;;;;;14.10;4.70;;;;;;;3.16;72.42;99398.72;79682;1300;3011388;-61
2024/03/14 05:58:44;;;;;;;14.60;5.40;;;;;;;3.24;72.43;99398.81;78384;1298;3049390;-60
2024/03/14 06:01:11;;;;;;;9.30;4.80;;;;;;;3.23;72.53;99394.34;79574;1300;3013395;-62
2024/03/14 06:03:42;;;;;;;13.20;4.80;;;;;;;3.28;72.30;99386.05;78349;1296;3027319;-62
2024/03/14 06:06:09;;;;;;;13.30;5.30;;;;;;;3.35;72.16;99389.49;79756;1299;3013241;-60
2024/03/14 06:08:37;;;;;;;15.50;5.60;;;;;;;3.36;72.22;99389.26;79296;1300;3028553;-59
2024/03/14 06:11:04;;;;;;;11.50;5.50;;;;;;;3.34;72.58;99395.38;80079;1296;3018704;-62
2024/03/14 06:13:33;;;;;;;13.40;5.80;;;;;;;3.46;71.90;99398.30;79677;1300;3011726;-61
2024/03/14 06:16:01;;;;;;;13.60;5.70;;;;;;;3.55;71.69;99400.09;78313;1300;3049034;-58
2024/03/14 06:18:28;;;;;;;16.10;5.90;;;;;;;3.43;72.07;99403.05;79625;1300;3021387;-62
2024/03/14 06:20:54;;;;;;;15.20;7.00;;;;;;;3.45;72.35;99404.37;79922;1299;3011555;-63
2024/03/14 06:23:22;;;;;;;13.00;6.40;;;;;;;3.57;72.19;99408.86;78666;1300;3028965;-63
2024/03/14 06:25:50;;;;;;;10.70;4.90;;;;;;;3.61;71.90;99407.85;79722;1297;3012908;-62
2024/03/14 06:28:17;;;;;;;11.70;5.30;;;;;;;3.70;71.59;99409.63;79587;1297;3013122;-59
2024/03/14 06:30:47;;;;;;;15.50;6.00;;;;;;;3.71;71.63;99404.42;78061;1300;3048876;-61
2024/03/14 06:33:14;;;;;;;17.00;5.90;;;;;;;3.74;71.76;99408.28;79996;1300;3013485;-63
2024/03/14 06:35:41;;;;;;;10.90;5.50;;;;;;;3.86;71.63;99412.39;79352;1296;3011840;-64
2024/03/14 06:38:08;;;;;;;16.50;6.90;;;;;;;3.92;71.10;99420.51;78631;1300;3052605;-62
2024/03/14 06:40:35;;;;;;;13.50;5.90;;;;;;;3.96;71.16;99426.10;79948;1296;3013500;-62
2024/03/14 06:43:06;;;;;;;16.70;6.70;;;;;;;4.02;70.78;99426.59;79368;1300;3011922;-60
2024/03/14 06:45:34;;;;;;;13.20;6.60;;;;;;;4.11;70.53;99427.30;78608;1299;3048342;-62
2024/03/14 06:48:01;;;;;;;27.70;7.10;;;;;;;4.15;70.35;99428.54;80544;1296;3012715;-58
2024/03/14 06:50:28;;;;;;;21.90;7.60;;;;;;;4.26;69.79;99428.20;80701;1295;3011579;-60
2024/03/14 06:52:58;;;;;;;16.00;6.70;;;;;;;4.36;69.66;99431.30;78667;1300;3051849;-62
2024/03/14 06:55:25;;;;;;;21.20;7.00;;;;;;;4.44;69.74;99433.59;79685;1297;3011422;-62
2024/03/14 06:57:52;;;;;;;15.40;8.10;;;;;;;4.53;69.43;99432.91;79568;1298;3011563;-63
2024/03/14 07:00:24;;;;;;;18.10;7.70;;;;;;;4.62;68.96;99438.18;79138;1296;3048123;-63
2024/03/14 07:02:52;;;;;;;25.80;8.30;;;;;;;4.70;68.87;99438.57;79932;1295;3013225;-61
2024/03/14 07:05:23;;;;;;;19.20;7.90;;;;;;;4.73;68.57;99432.73;78717;1298;3049770;-61
2024/03/14 07:07:50;;;;;;;15.70;7.70;;;;;;;4.68;68.44;99442.63;79853;1295;3011850;-61
2024/03/14 07:10:19;;;;;;;21.10;7.80;;;;;;;4.61;68.67;99443.23;78270;1300;3026836;-62
2024/03/14 07:12:46;;;;;;;20.60;7.30;;;;;;;4.65;68.46;99443.24;80975;1297;3013202;-62
2024/03/14 07:15:13;;;;;;;21.70;7.30;;;;;;;4.69;68.46;99443.96;79511;1295;3013026;-61
2024/03/14 07:17:41;;;;;;;21.70;8.10;;;;;;;4.74;68.54;99439.46;78115;1299;3049921;-61
2024/03/14 07:20:18;;;;;;;25.80;9.10;;;;;;;4.77;68.57;99439.67;79254;1301;3013786;-61
2024/03/14 07:22:46;;;;;;;31.20;10.30;;;;;;;4.81;68.63;99442.33;78299;1297;3052923;-63
2024/03/14 07:25:13;;;;;;;31.90;10.50;;;;;;;4.90;68.48;99443.55;81508;1296;3012335;-59
2024/03/14 07:27:40;;;;;;;19.80;8.90;;;;;;;5.02;68.21;99442.55;80231;1298;3011811;-62
2024/03/14 07:30:13;;;;;;;15.30;9.00;;;;;;;5.07;67.98;99441.16;78732;1295;3026156;-61
2024/03/14 07:32:41;;;;;;;22.90;10.90;;;;;;;5.23;67.50;99442.82;79464;1296;3011705;-60
2024/03/14 07:35:09;;;;;;;37.40;12.90;;;;;;;5.25;67.23;99445.86;78517;1297;3052233;-61
2024/03/14 07:37:35;;;;;;;35.30;13.30;;;;;;;5.27;66.69;99447.17;80580;1296;3013758;-60
2024/03/14 07:40:04;;;;;;;39.40;14.40;;;;;;;5.34;66.28;99450.38;80166;1299;3011560;-60
2024/03/14 07:42:33;;;;;;;28.70;11.40;;;;;;;5.51;65.83;99447.11;79327;1296;3069225;-62
2024/03/14 07:45:00;;;;;;;33.90;12.50;;;;;;;5.59;65.07;99449.56;79542;1300;3013444;-61
2024/03/14 07:47:26;;;;;;;38.90;12.60;;;;;;;5.70;64.64;99450.34;80292;1297;3011344;-62
2024/03/14 07:49:54;;;;;;;41.70;12.60;;;;;;;5.80;64.44;99450.09;78602;1301;3028858;-62
2024/03/14 07:52:21;;;;;;;40.70;13.00;;;;;;;5.89;63.93;99445.00;80098;1295;3013533;-63
2024/03/14 07:54:47;;;;;;;34.60;12.00;;;;;;;5.93;63.54;99446.95;79342;1299;3011774;-61
2024/03/14 07:57:15;;;;;;;30.60;9.70;;;;;;;5.88;63.70;99448.71;78035;1298;3028555;-60
2024/03/14 07:59:42;;;;;;;24.40;9.20;;;;;;;5.89;63.89;99454.41;79861;1295;3012953;-63
2024/03/14 08:02:12;;;;;;;34.70;10.10;;;;;;;5.88;63.93;99459.50;79515;1300;3011749;-62
2024/03/14 08:04:41;;;;;;;32.10;11.90;;;;;;;5.83;63.79;99466.31;78258;1298;3054315;-64
2024/03/14 08:07:13;;;;;;;23.60;10.50;;;;;;;5.80;64.06;99468.34;79621;1300;3011732;-65
2024/03/14 08:09:41;;;;;;;25.60;11.20;;;;;;;5.92;63.93;99463.54;78570;1299;3052332;-63
2024/03/14 08:12:09;;;;;;;34.00;12.00;;;;;;;6.03;63.72;99466.23;80311;1298;3013263;-63
2024/03/14 08:14:36;;;;;;;27.60;11.00;;;;;;;6.17;63.41;99462.13;79687;1297;3011722;-63
2024/03/14 08:17:13;;;;;;;31.30;10.60;;;;;;;6.10;63.51;99461.08;79458;1296;3056768;-61
2024/03/14 08:19:44;;;;;;;21.30;9.90;;;;;;;6.10;63.24;99465.60;79420;1296;3049226;-62
2024/03/14 08:22:10;;;;;;;23.70;9.50;;;;;;;6.12;63.27;99463.05;80296;1297;3011642;-62
2024/03/14 08:24:46;;;;;;;26.30;10.40;;;;;;;6.26;63.23;99470.28;79583;1297;3012403;-59
2024/03/14 08:27:15;;;;;;;24.50;10.90;;;;;;;6.27;63.13;99476.17;80003;1297;3011638;-60
2024/03/14 08:29:42;;;;;;;26.00;10.70;;;;;;;6.40;62.82;99474.94;80272;1297;3012875;-61
2024/03/14 08:32:14;;;;;;;24.00;8.80;;;;;;;6.58;62.47;99472.40;79931;1300;3013894;-61
2024/03/14 08:34:42;;;;;;;19.40;7.50;;;;;;;6.52;62.43;99471.77;79161;1300;3050371;-64
2024/03/14 08:37:10;;;;;;;20.50;7.60;;;;;;;6.54;62.41;99468.21;79925;1296;3012726;-62
2024/03/14 08:39:37;;;;;;;19.40;7.70;;;;;;;6.59;62.55;99474.80;80695;1296;3011450;-62
2024/03/14 08:42:08;;;;;;;15.00;8.10;;;;;;;6.59;62.17;99470.77;78980;1300;3050580;-61
2024/03/14 08:44:34;;;;;;;14.60;7.40;;;;;;;6.52;62.40;99477.52;79696;1296;3012626;-61
2024/03/14 08:47:03;;;;;;;18.80;8.00;;;;;;;6.55;62.17;99476.51;79884;1296;3011809;-62
2024/03/14 08:49:31;;;;;;;22.50;8.60;;;;;;;6.67;62.02;99475.33;79562;1298;3011588;-62
2024/03/14 08:51:59;;;;;;;24.60;10.90;;;;;;;6.70;62.02;99474.65;80717;1298;3011166;-61
2024/03/14 08:56:58;;;;;;;27.40;10.40;;;;;;;7.13;61.13;99472.75;79786;1298;3013303;-60
2024/03/14 08:59:28;;;;;;;27.50;11.30;;;;;;;7.28;60.66;99467.50;78702;1295;3053740;-61
2024/03/14 09:01:55;;;;;;;24.40;9.90;;;;;;;7.36;60.21;99469.18;80746;1297;3013988;-63
2024/03/14 09:04:22;;;;;;;18.40;8.70;;;;;;;7.50;60.00;99477.96;79834;1298;3013047;-62
2024/03/14 09:06:50;;;;;;;23.80;9.40;;;;;;;7.55;59.43;99482.41;78838;1295;3056045;-64
2024/03/14 09:09:34;;;;;;;25.50;9.50;;;;;;;7.57;58.88;99481.30;80567;1297;3012739;-63
2024/03/14 09:12:17;;;;;;;17.80;7.90;;;;;;;7.79;58.61;99477.62;78578;1299;3050988;-63
2024/03/14 09:14:45;;;;;;;;;;;;;;;7.92;58.22;99481.70;78816;1297;3051744;-62
2024/03/14 09:17:11;;;;;;;22.00;8.00;;;;;;;8.04;57.98;99480.23;79382;1296;3013781;-64
2024/03/14 09:19:39;;;;;;;24.90;8.50;;;;;;;8.25;57.53;99478.82;80362;1300;3011612;-61
2024/03/14 09:22:08;;;;;;;27.30;9.40;;;;;;;8.44;57.13;99479.98;78435;1298;3055909;-59
2024/03/14 09:24:35;;;;;;;24.80;8.80;;;;;;;8.56;56.73;99477.42;79849;1297;3011662;-60
2024/03/14 09:27:04;;;;;;;25.30;9.80;;;;;;;8.68;56.42;99481.17;80732;1300;3011466;-60
2024/03/14 09:29:33;;;;;;;22.70;7.70;;;;;;;8.71;56.20;99477.86;79641;1300;3051129;-62
2024/03/14 09:32:00;;;;;;;20.30;7.70;;;;;;;8.74;56.21;99478.23;80343;1297;3015806;-63
2024/03/14 09:34:27;;;;;;;35.20;9.70;;;;;;;8.82;56.03;99477.12;79775;1297;3011871;-61
2024/03/14 09:36:55;;;;;;;15.60;7.50;;;;;;;8.76;55.97;99475.69;77843;1299;3056611;-63
2024/03/14 09:39:22;;;;;;;20.50;9.10;;;;;;;8.75;56.10;99472.78;79299;1298;3014478;-62
2024/03/14 09:41:49;;;;;;;20.10;7.90;;;;;;;8.77;56.04;99472.88;79287;1296;3011831;-61
2024/03/14 09:44:23;;;;;;;18.70;7.50;;;;;;;8.82;55.87;99475.38;79012;1297;3052798;-63
2024/03/14 09:46:56;;;;;;;23.30;8.50;;;;;;;8.83;55.65;99474.43;79505;1300;3011651;-60
2024/03/14 09:49:24;;;;;;;24.10;8.40;;;;;;;8.95;55.65;99470.85;78888;1297;3067976;-63
2024/03/14 09:51:53;;;;;;;20.50;8.40;;;;;;;9.13;55.08;99466.92;79877;1297;3013634;-60
2024/03/14 09:54:24;;;;;;;27.90;9.40;;;;;;;9.22;54.74;99469.36;79762;1296;3011473;-64
2024/03/14 09:56:51;;;;;;;29.50;9.80;;;;;;;9.33;54.66;99466.51;80031;1302;3011771;-61
2024/03/14 09:59:21;;;;;;;29.10;10.20;;;;;;;9.41;54.51;99465.88;79255;1300;3011634;-62
2024/03/14 10:01:48;;;;;;;23.00;9.60;;;;;;;9.52;54.12;99466.19;79345;1299;3012818;-62
2024/03/14 10:04:15;;;;;;;30.80;10.40;;;;;;;9.48;54.10;99469.04;79311;1297;3011750;-61
2024/03/14 10:06:43;;;;;;;28.60;9.30;;;;;;;9.52;53.94;99466.19;79430;1298;3068099;-61
2024/03/14 10:09:11;;;;;;;20.80;8.40;;;;;;;9.66;53.60;99468.71;80395;1297;3018413;-64
2024/03/14 10:11:38;;;;;;;15.80;6.80;;;;;;;9.70;53.77;99469.35;79573;1296;3011943;-62
2024/03/14 10:14:07;;;;;;;20.30;8.00;;;;;;;9.74;53.60;99466.86;79164;1296;3053186;-60
2024/03/14 10:16:34;;;;;;;24.40;8.70;;;;;;;9.85;53.38;99466.21;79816;1296;3013482;-61
2024/03/14 10:19:01;;;;;;;17.70;8.00;;;;;;;10.00;52.87;99463.59;79379;1299;3011519;-61
2024/03/14 10:21:29;;;;;;;16.40;6.40;;;;;;;10.18;52.36;99466.92;78104;1298;3069476;-62
2024/03/14 10:23:57;;;;;;;16.70;7.10;;;;;;;10.28;51.96;99470.55;79359;1301;3019245;-63
2024/03/14 10:26:24;;;;;;;15.20;7.60;;;;;;;10.18;52.14;99468.50;80148;1297;3011944;-61
2024/03/14 10:28:52;;;;;;;27.40;10.40;;;;;;;10.09;52.46;99468.01;78613;1297;3053618;-60
2024/03/14 10:31:21;;;;;;;26.20;9.20;;;;;;;10.04;52.66;99463.52;79365;1300;3020632;-62
2024/03/14 10:33:47;;;;;;;30.80;8.20;;;;;;;10.04;52.70;99461.27;80563;1300;3011939;-60
2024/03/14 10:36:15;;;;;;;18.10;8.10;;;;;;;10.17;52.52;99461.19;78976;1296;3067952;-61
2024/03/14 10:38:43;;;;;;;19.70;8.40;;;;;;;10.29;52.15;99464.36;79323;1296;3012870;-61
2024/03/14 10:41:12;;;;;;;22.60;9.40;;;;;;;10.23;52.05;99467.16;79160;1296;3012975;-60
2024/03/14 10:43:40;;;;;;;14.40;7.60;;;;;;;10.26;51.89;99466.61;78402;1296;3053718;-62
2024/03/14 10:46:10;;;;;;;18.40;8.60;;;;;;;10.30;52.05;99463.08;80595;1297;3012981;-62
2024/03/14 10:48:39;;;;;;;15.30;6.50;;;;;;;10.41;51.73;99462.43;78707;1297;3052839;-63
2024/03/14 10:51:06;;;;;;;11.70;6.10;;;;;;;10.40;51.60;99461.66;79607;1297;3013195;-62
2024/03/14 10:53:34;;;;;;;13.00;6.50;;;;;;;10.42;51.40;99462.06;79312;1300;3011659;-63
2024/03/14 10:56:02;;;;;;;11.70;6.40;;;;;;;10.44;51.52;99457.00;78456;1300;3049170;-61
2024/03/14 10:58:29;;;;;;;10.50;5.80;;;;;;;10.42;51.61;99453.99;80508;1297;3019345;-64
2024/03/14 11:00:56;;;;;;;12.00;6.40;;;;;;;10.52;51.28;99456.40;79752;1300;3013211;-62
2024/03/14 11:03:24;;;;;;;9.30;6.00;;;;;;;10.60;51.16;99459.39;78911;1300;3026542;-61
2024/03/14 11:05:52;;;;;;;16.30;6.90;;;;;;;10.76;50.84;99458.77;80534;1297;3013578;-61
2024/03/14 11:08:21;;;;;;;20.50;8.30;;;;;;;10.86;50.73;99457.61;79836;1297;3011743;-61
2024/03/14 11:10:49;;;;;;;17.10;8.30;;;;;;;10.94;50.39;99460.86;79024;1297;3050419;-63
2024/03/14 11:13:18;;;;;;;18.60;6.80;;;;;;;10.88;50.52;99454.70;79718;1296;3013443;-61
2024/03/14 11:15:44;;;;;;;14.90;6.20;;;;;;;10.83;50.66;99452.21;79989;1297;3011429;-64
2024/03/14 11:18:16;;;;;;;11.30;5.80;;;;;;;10.95;50.62;99451.51;79977;1297;3052290;-60
2024/03/14 11:20:51;;;;;;;16.10;6.40;;;;;;;10.87;50.70;99453.16;79757;1297;3011842;-61
2024/03/14 11:23:25;;;;;;;12.70;5.60;;;;;;;10.75;50.84;99455.32;78692;1297;3051063;-60
2024/03/14 11:25:57;;;;;;;12.90;7.10;;;;;;;10.74;50.85;99449.77;79793;1296;3011848;-62
2024/03/14 11:28:26;;;;;;;16.40;5.90;;;;;;;10.60;51.20;99450.98;79004;1296;3049099;-61
2024/03/14 11:30:56;;;;;;;10.40;5.10;;;;;;;10.65;51.24;99448.77;79820;1302;3013361;-63